createdAt,value
2023-04-09T00:00:30.885Z,45.2010
2023-04-09T00:01:32.527Z,44.9101
2023-04-09T00:02:34.134Z,45.1307
2023-04-09T00:03:35.975Z,44.8719
2023-04-09T00:04:37.512Z,45.3016
2023-04-09T00:05:39.045Z,45.2137
2023-04-09T00:06:40.729Z,45.0243
2023-04-09T00:07:44.498Z,44.8257
2023-04-09T00:08:44.001Z,44.5928
2023-04-09T00:09:45.795Z,44.4661
2023-04-09T00:10:47.419Z,44.4758
2023-04-09T00:11:49.014Z,44.5173
2023-04-09T00:12:50.658Z,44.6466
2023-04-09T00:13:52.355Z,44.4864
2023-04-09T00:14:53.949Z,44.3417
2023-04-09T00:15:55.639Z,44.2727
2023-04-09T00:16:57.327Z,44.2389
2023-04-09T00:17:58.941Z,44.1980
2023-04-09T00:19:00.566Z,44.0298
2023-04-09T00:20:02.230Z,43.9331
2023-04-09T00:21:03.874Z,43.9804
2023-04-09T00:22:05.538Z,44.0787
2023-04-09T00:23:07.217Z,43.9818
2023-04-09T00:24:08.741Z,44.0144
2023-04-09T00:25:10.451Z,43.8971
2023-04-09T00:26:12.178Z,43.8343
2023-04-09T00:27:13.870Z,43.7906
2023-04-09T00:28:15.471Z,43.7229
2023-04-09T00:29:17.208Z,43.7397
2023-04-09T00:30:18.800Z,43.6874
2023-04-09T00:31:20.877Z,43.6041
2023-04-09T00:32:22.075Z,43.5912
2023-04-09T00:33:23.652Z,43.5133
2023-04-09T00:34:25.336Z,43.4608
2023-04-09T00:35:26.974Z,43.4096
2023-04-09T00:36:28.728Z,43.3888
2023-04-09T00:37:30.315Z,43.3005
2023-04-09T00:38:31.999Z,43.2949
2023-04-09T00:39:33.621Z,43.2321
2023-04-09T00:40:35.255Z,43.2323
2023-04-09T00:41:37.009Z,43.2022
2023-04-09T00:42:38.590Z,43.1963
2023-04-09T00:43:40.274Z,43.1501
2023-04-09T00:44:41.810Z,43.0900
2023-04-09T00:45:43.536Z,43.0547
2023-04-09T00:46:45.106Z,42.9927
2023-04-09T00:47:47.383Z,42.9893
2023-04-09T00:48:48.510Z,42.9760
2023-04-09T00:49:50.179Z,42.9475
2023-04-09T00:50:51.748Z,42.9121
2023-04-09T00:51:53.387Z,42.8560
2023-04-09T00:52:55.154Z,42.8576
2023-04-09T00:53:56.788Z,42.8380
2023-04-09T00:54:58.439Z,42.8346
2023-04-09T00:56:00.031Z,42.8368
2023-04-09T00:57:01.678Z,42.7964
2023-04-09T00:58:03.432Z,42.7397
2023-04-09T00:59:05.370Z,42.7651
2023-04-09T01:00:06.718Z,42.7983
2023-04-09T01:01:08.398Z,42.7564
2023-04-09T01:02:10.922Z,42.7011
2023-04-09T01:03:12.029Z,44.4960
2023-04-09T01:04:13.346Z,46.3223
2023-04-09T01:05:14.928Z,46.9127
2023-04-09T01:06:16.538Z,46.8115
2023-04-09T01:07:18.281Z,46.4121
2023-04-09T01:08:20.103Z,45.6501
2023-04-09T01:09:21.565Z,45.3333
2023-04-09T01:10:23.206Z,45.6032
2023-04-09T01:11:24.982Z,45.4275
2023-04-09T01:12:26.511Z,45.9185
2023-04-09T01:13:28.223Z,45.8055
2023-04-09T01:14:29.940Z,45.5389
2023-04-09T01:15:31.524Z,44.9458
2023-04-09T01:16:33.136Z,44.8266
2023-04-09T01:17:34.892Z,45.0243
2023-04-09T01:18:36.505Z,44.9885
2023-04-09T01:19:38.124Z,45.2936
2023-04-09T01:20:39.828Z,45.1396
2023-04-09T01:21:41.423Z,44.7202
2023-04-09T01:22:43.078Z,44.4694
2023-04-09T01:23:44.791Z,44.4420
2023-04-09T01:24:46.398Z,44.3270
2023-04-09T01:25:48.068Z,44.6073
2023-04-09T01:26:49.701Z,44.4256
2023-04-09T01:27:51.345Z,44.2558
2023-04-09T01:28:53.459Z,44.0186
2023-04-09T01:29:54.675Z,43.8891
2023-04-09T01:30:56.455Z,43.8539
2023-04-09T01:31:57.966Z,43.9184
2023-04-09T01:33:00.036Z,44.2074
2023-04-09T01:34:01.414Z,44.0729
2023-04-09T01:35:02.905Z,43.7714
2023-04-09T01:36:04.719Z,43.5037
2023-04-09T01:37:06.294Z,43.5056
2023-04-09T01:38:07.898Z,43.3904
2023-04-09T01:39:09.611Z,43.6682
2023-04-09T01:40:11.340Z,43.7303
2023-04-09T01:41:12.763Z,43.5316
2023-04-09T01:42:14.450Z,43.3175
2023-04-09T01:43:16.089Z,43.2819
2023-04-09T01:44:17.733Z,43.3293
2023-04-09T01:45:19.460Z,43.3931
2023-04-09T01:46:21.134Z,43.5698
2023-04-09T01:47:22.701Z,43.5026
2023-04-09T01:48:24.355Z,43.3009
2023-04-09T01:49:26.155Z,43.0707
2023-04-09T01:50:27.827Z,43.0974
2023-04-09T01:51:29.362Z,43.1468
2023-04-09T01:52:31.778Z,43.3041
2023-04-09T01:53:32.756Z,43.2560
2023-04-09T01:54:34.509Z,43.1161
2023-04-09T01:55:36.046Z,42.8794
2023-04-09T01:56:37.760Z,42.7657
2023-04-09T01:57:39.326Z,42.7844
2023-04-09T01:58:41.040Z,42.8702
2023-04-09T01:59:42.646Z,43.0979
2023-04-09T02:00:45.286Z,43.0598
2023-04-09T02:01:46.966Z,42.9434
2023-04-09T02:02:47.749Z,42.6449
2023-04-09T02:03:49.389Z,42.6370
2023-04-09T02:04:51.165Z,42.6626
2023-04-09T02:05:52.939Z,42.7775
2023-04-09T02:06:54.257Z,42.8960
2023-04-09T02:07:55.895Z,42.8129
2023-04-09T02:08:57.613Z,42.6750
2023-04-09T02:09:59.283Z,45.8385
2023-04-09T02:11:00.840Z,47.5195
2023-04-09T02:12:02.542Z,47.0944
2023-04-09T02:13:04.157Z,47.0248
2023-04-09T02:14:05.990Z,46.6282
2023-04-09T02:15:07.595Z,45.8711
2023-04-09T02:16:09.178Z,45.6520
2023-04-09T02:17:10.796Z,45.7575
2023-04-09T02:18:12.451Z,45.6313
2023-04-09T02:19:14.076Z,45.9286
2023-04-09T02:20:15.820Z,45.8058
2023-04-09T02:21:17.353Z,45.5691
2023-04-09T02:22:19.019Z,45.0537
2023-04-09T02:23:20.728Z,44.8953
2023-04-09T02:24:22.447Z,44.9414
2023-04-09T02:25:24.078Z,44.8179
2023-04-09T02:26:25.642Z,45.1536
2023-04-09T02:27:27.406Z,45.0410
2023-04-09T02:28:29.049Z,44.9553
2023-04-09T02:29:30.649Z,44.4534
2023-04-09T02:30:32.343Z,44.4444
2023-04-09T02:31:34.023Z,44.3861
2023-04-09T02:32:35.744Z,44.3865
2023-04-09T02:33:37.353Z,44.4757
2023-04-09T02:34:39.059Z,44.3862
2023-04-09T02:35:40.670Z,44.1619
2023-04-09T02:36:42.334Z,43.8612
2023-04-09T02:37:44.014Z,43.8607
2023-04-09T02:38:45.604Z,43.9119
2023-04-09T02:39:47.406Z,44.0485
2023-04-09T02:40:48.948Z,44.1241
2023-04-09T02:41:50.642Z,43.9729
2023-04-09T02:42:52.172Z,43.6216
2023-04-09T02:43:53.910Z,43.3845
2023-04-09T02:44:55.577Z,43.4723
2023-04-09T02:45:57.459Z,43.4725
2023-04-09T02:46:58.780Z,43.7192
2023-04-09T02:48:00.501Z,43.6460
2023-04-09T02:49:02.858Z,43.4501
2023-04-09T02:50:03.897Z,43.1819
2023-04-09T02:51:05.597Z,43.0636
2023-04-09T02:52:07.114Z,43.1345
2023-04-09T02:53:08.894Z,43.1949
2023-04-09T02:54:10.412Z,43.1372
2023-04-09T02:55:12.069Z,42.7838
2023-04-09T02:56:13.815Z,42.4908
2023-04-09T02:57:15.261Z,42.1428
2023-04-09T02:58:16.992Z,41.5280
2023-04-09T02:59:18.727Z,41.1803
2023-04-09T03:00:20.348Z,41.1107
2023-04-09T03:01:22.135Z,41.0405
2023-04-09T03:02:23.818Z,41.0575
2023-04-09T03:03:26.040Z,41.1086
2023-04-09T03:04:26.980Z,40.9276
2023-04-09T03:05:28.520Z,40.8487
2023-04-09T03:06:30.294Z,40.8349
2023-04-09T03:07:31.856Z,40.8684
2023-04-09T03:08:33.504Z,40.7459
2023-04-09T03:09:35.157Z,40.6072
2023-04-09T03:10:36.820Z,40.5744
2023-04-09T03:11:38.536Z,40.6230
2023-04-09T03:12:40.128Z,40.6650
2023-04-09T03:13:41.820Z,40.4614
2023-04-09T03:14:43.483Z,40.3347
2023-04-09T03:15:45.125Z,40.3633
2023-04-09T03:16:46.781Z,40.4514
2023-04-09T03:17:48.433Z,40.4075
2023-04-09T03:18:50.256Z,40.2235
2023-04-09T03:19:51.686Z,40.1877
2023-04-09T03:20:53.341Z,40.1378
2023-04-09T03:21:55.031Z,40.0440
2023-04-09T03:22:56.638Z,40.0814
2023-04-09T03:23:58.321Z,40.0381
2023-04-09T03:24:59.983Z,40.0071
2023-04-09T03:26:01.616Z,39.9362
2023-04-09T03:27:03.362Z,39.8866
2023-04-09T03:28:04.876Z,39.8734
2023-04-09T03:29:06.616Z,39.9179
2023-04-09T03:30:08.235Z,39.9265
2023-04-09T03:31:09.964Z,39.9279
2023-04-09T03:32:11.545Z,39.9124
2023-04-09T03:33:13.187Z,39.8008
2023-04-09T03:34:14.836Z,39.5984
2023-04-09T03:35:16.464Z,39.6406
2023-04-09T03:36:18.091Z,39.7031
2023-04-09T03:37:19.818Z,39.7206
2023-04-09T03:38:21.408Z,39.6387
2023-04-09T03:39:23.121Z,39.6407
2023-04-09T03:40:24.740Z,39.4989
2023-04-09T03:41:26.469Z,39.4491
2023-04-09T03:42:27.998Z,39.4308
2023-04-09T03:43:29.703Z,39.4949
2023-04-09T03:44:31.954Z,39.5286
2023-04-09T03:45:33.017Z,39.5070
2023-04-09T03:46:34.750Z,39.5034
2023-04-09T03:47:36.354Z,39.3558
2023-04-09T03:48:38.009Z,39.3204
2023-04-09T03:49:39.614Z,39.3434
2023-04-09T03:50:41.252Z,39.4147
2023-04-09T03:51:42.937Z,39.3659
2023-04-09T03:52:44.651Z,39.3731
2023-04-09T03:53:46.335Z,39.3987
2023-04-09T03:54:47.962Z,39.1942
2023-04-09T03:55:49.626Z,39.1191
2023-04-09T03:56:52.068Z,39.2524
2023-04-09T03:57:52.934Z,39.2965
2023-04-09T03:58:54.881Z,39.3654
2023-04-09T03:59:56.248Z,39.2623
2023-04-09T04:00:57.769Z,39.1328
2023-04-09T04:01:59.549Z,39.1626
2023-04-09T04:03:01.372Z,39.1602
2023-04-09T04:04:02.941Z,39.2930
2023-04-09T04:05:04.493Z,39.2650
2023-04-09T04:06:06.160Z,39.3134
2023-04-09T04:07:07.804Z,39.2064
2023-04-09T04:08:09.423Z,39.1167
2023-04-09T04:09:11.023Z,39.2231
2023-04-09T04:10:12.794Z,39.2028
2023-04-09T04:11:14.374Z,39.1490
2023-04-09T04:12:16.020Z,39.2713
2023-04-09T04:13:17.707Z,39.1156
2023-04-09T04:14:19.355Z,39.1363
2023-04-09T04:15:21.044Z,39.1883
2023-04-09T04:16:22.697Z,39.2421
2023-04-09T04:17:24.341Z,39.2775
2023-04-09T04:18:25.957Z,39.2823
2023-04-09T04:19:27.614Z,39.2683
2023-04-09T04:20:29.244Z,39.1883
2023-04-09T04:21:30.919Z,39.1649
2023-04-09T04:22:32.602Z,39.2639
2023-04-09T04:23:34.250Z,39.2440
2023-04-09T04:24:35.901Z,39.2063
2023-04-09T04:25:37.541Z,39.2104
2023-04-09T04:26:39.229Z,39.1429
2023-04-09T04:27:40.893Z,39.0563
2023-04-09T04:28:42.556Z,39.0215
2023-04-09T04:29:44.141Z,39.0756
2023-04-09T04:30:45.867Z,39.0673
2023-04-09T04:31:47.497Z,39.1170
2023-04-09T04:32:49.097Z,39.1160
2023-04-09T04:33:50.782Z,39.0884
2023-04-09T04:34:52.425Z,39.1256
2023-04-09T04:35:54.144Z,38.9488
2023-04-09T04:36:55.633Z,38.8631
2023-04-09T04:37:57.399Z,38.9641
2023-04-09T04:38:59.067Z,38.9991
2023-04-09T04:40:00.666Z,39.0320
2023-04-09T04:41:02.306Z,39.0979
2023-04-09T04:42:03.947Z,39.0861
2023-04-09T04:43:05.665Z,38.9923
2023-04-09T04:44:07.311Z,38.9022
2023-04-09T04:45:09.052Z,38.9366
2023-04-09T04:46:10.622Z,38.9766
2023-04-09T04:47:12.244Z,38.9780
2023-04-09T04:48:13.917Z,39.0855
2023-04-09T04:49:16.324Z,39.0803
2023-04-09T04:50:17.256Z,38.9328
2023-04-09T04:51:18.841Z,38.9747
2023-04-09T04:52:20.475Z,39.1111
2023-04-09T04:53:22.139Z,39.1659
2023-04-09T04:54:23.842Z,39.0636
2023-04-09T04:55:26.505Z,39.0347
2023-04-09T04:56:27.114Z,39.0807
2023-04-09T04:57:28.939Z,39.2137
2023-04-09T04:58:30.423Z,39.2996
2023-04-09T04:59:32.200Z,39.3009
2023-04-09T05:00:33.734Z,39.2704
2023-04-09T05:01:35.418Z,39.1894
2023-04-09T05:02:37.186Z,39.1641
2023-04-09T05:03:38.779Z,39.1875
2023-04-09T05:04:40.392Z,39.1643
2023-04-09T05:05:42.002Z,39.2248
2023-04-09T05:06:43.662Z,39.2359
2023-04-09T05:07:45.306Z,39.3316
2023-04-09T05:08:47.009Z,39.3728
2023-04-09T05:09:48.626Z,39.5826
2023-04-09T05:10:50.220Z,39.6315
2023-04-09T05:11:51.930Z,39.6038
2023-04-09T05:12:53.611Z,39.6356
2023-04-09T05:13:55.186Z,39.6854
2023-04-09T05:14:56.986Z,39.6740
2023-04-09T05:15:58.630Z,39.6750
2023-04-09T05:17:00.216Z,39.8622
2023-04-09T05:18:01.925Z,39.9166
2023-04-09T05:19:03.528Z,39.9171
2023-04-09T05:20:05.949Z,39.9301
2023-04-09T05:21:07.457Z,39.9442
2023-04-09T05:22:08.464Z,39.8799
2023-04-09T05:23:10.082Z,39.9961
2023-04-09T05:24:11.737Z,40.0130
2023-04-09T05:25:13.410Z,40.0870
2023-04-09T05:26:14.995Z,40.0832
2023-04-09T05:27:16.722Z,39.9479
2023-04-09T05:28:18.434Z,39.9574
2023-04-09T05:29:20.058Z,39.9308
2023-04-09T05:30:21.724Z,39.8766
2023-04-09T05:31:23.257Z,39.8784
2023-04-09T05:32:25.221Z,39.9501
2023-04-09T05:33:26.679Z,40.1115
2023-04-09T05:34:28.265Z,40.1963
2023-04-09T05:35:29.983Z,40.2562
2023-04-09T05:36:31.577Z,40.2411
2023-04-09T05:37:33.499Z,40.2344
2023-04-09T05:38:34.965Z,40.2906
2023-04-09T05:39:37.502Z,40.2701
2023-04-09T05:40:38.298Z,40.2340
2023-04-09T05:41:39.857Z,40.3282
2023-04-09T05:42:41.537Z,40.3865
2023-04-09T05:43:43.439Z,40.6020
2023-04-09T05:44:44.857Z,40.8038
2023-04-09T05:45:46.718Z,40.8848
2023-04-09T05:46:48.189Z,40.7077
2023-04-09T05:47:49.824Z,40.6290
2023-04-09T05:48:51.595Z,40.4824
2023-04-09T05:49:53.246Z,40.6723
2023-04-09T05:50:55.841Z,41.0486
2023-04-09T05:51:56.517Z,40.7630
2023-04-09T05:52:58.191Z,40.7501
2023-04-09T05:53:59.858Z,40.5853
2023-04-09T05:55:01.492Z,40.3594
2023-04-09T05:56:03.126Z,40.5060
2023-04-09T05:57:04.811Z,40.8507
2023-04-09T05:58:06.499Z,40.7362
2023-04-09T05:59:07.995Z,40.6173
2023-04-09T06:00:10.102Z,40.4660
2023-04-09T06:01:11.356Z,40.3232
2023-04-09T06:02:13.004Z,40.5473
2023-04-09T06:03:14.777Z,40.7828
2023-04-09T06:04:16.406Z,40.7318
2023-04-09T06:05:18.581Z,40.9860
2023-04-09T06:06:19.632Z,40.4458
2023-04-09T06:07:21.241Z,40.3357
2023-04-09T06:08:22.958Z,40.6935
2023-04-09T06:09:24.612Z,40.7187
2023-04-09T06:10:26.537Z,40.7896
2023-04-09T06:11:28.009Z,40.6196
2023-04-09T06:12:29.911Z,40.3533
2023-04-09T06:13:31.202Z,40.3642
2023-04-09T06:14:32.882Z,40.7241
2023-04-09T06:15:34.555Z,40.5716
2023-04-09T06:16:36.130Z,40.6376
2023-04-09T06:17:37.804Z,40.5471
2023-04-09T06:18:39.611Z,40.2304
2023-04-09T06:19:41.170Z,40.3253
2023-04-09T06:20:42.911Z,40.8188
2023-04-09T06:21:44.297Z,40.6080
2023-04-09T06:22:45.987Z,40.4690
2023-04-09T06:23:47.642Z,40.4145
2023-04-09T06:24:49.279Z,40.2752
2023-04-09T06:25:50.972Z,40.2905
2023-04-09T06:26:52.607Z,40.6642
2023-04-09T06:27:54.212Z,40.6981
2023-04-09T06:28:55.877Z,40.4987
2023-04-09T06:29:57.550Z,40.5440
2023-04-09T06:30:59.300Z,40.3575
2023-04-09T06:32:00.786Z,40.3025
2023-04-09T06:33:02.572Z,40.7254
2023-04-09T06:34:04.103Z,40.6381
2023-04-09T06:35:05.826Z,40.5001
2023-04-09T06:36:08.484Z,40.3671
2023-04-09T06:37:09.021Z,40.1500
2023-04-09T06:38:11.362Z,40.1833
2023-04-09T06:39:13.168Z,40.5856
2023-04-09T06:40:14.071Z,40.5506
2023-04-09T06:41:15.930Z,40.3506
2023-04-09T06:42:17.373Z,40.2310
2023-04-09T06:43:18.964Z,40.1634
2023-04-09T06:44:20.670Z,40.1505
2023-04-09T06:45:22.247Z,40.3643
2023-04-09T06:46:24.033Z,40.5759
2023-04-09T06:47:25.621Z,40.3597
2023-04-09T06:48:27.930Z,40.3476
2023-04-09T06:49:28.893Z,40.1047
2023-04-09T06:50:30.557Z,40.1696
2023-04-09T06:51:32.541Z,40.1292
2023-04-09T06:52:33.937Z,40.3663
2023-04-09T06:53:35.519Z,40.4232
2023-04-09T06:54:37.991Z,40.2556
2023-04-09T06:55:38.885Z,40.1704
2023-04-09T06:56:40.962Z,40.1590
2023-04-09T06:57:42.143Z,40.2319
2023-04-09T06:58:43.837Z,40.5715
2023-04-09T06:59:45.486Z,40.3890
2023-04-09T07:00:47.089Z,40.3035
2023-04-09T07:01:49.385Z,40.1362
2023-04-09T07:02:50.673Z,40.2145
2023-04-09T07:03:52.625Z,40.3731
2023-04-09T07:04:53.729Z,40.7177
2023-04-09T07:05:55.432Z,40.4046
2023-04-09T07:06:58.150Z,40.2985
2023-04-09T07:07:58.703Z,39.9968
2023-04-09T07:09:00.461Z,39.9709
2023-04-09T07:10:02.019Z,40.1298
2023-04-09T07:11:03.669Z,40.4779
2023-04-09T07:12:05.386Z,40.2318
2023-04-09T07:13:07.495Z,40.1452
2023-04-09T07:14:08.625Z,39.9351
2023-04-09T07:15:10.318Z,39.8406
2023-04-09T07:16:11.943Z,39.9564
2023-04-09T07:17:13.634Z,40.2818
2023-04-09T07:18:15.265Z,40.1000
2023-04-09T07:19:16.777Z,40.0411
2023-04-09T07:20:18.566Z,39.8176
2023-04-09T07:21:20.165Z,39.7205
2023-04-09T07:22:22.128Z,39.9054
2023-04-09T07:23:23.577Z,40.0179
2023-04-09T07:24:25.301Z,39.9621
2023-04-09T07:25:26.778Z,39.9828
2023-04-09T07:26:28.509Z,39.8290
2023-04-09T07:27:30.101Z,39.6540
2023-04-09T07:28:31.757Z,39.9192
2023-04-09T07:29:33.586Z,40.0733
2023-04-09T07:30:35.013Z,39.8423
2023-04-09T07:31:36.619Z,39.8062
2023-04-09T07:32:38.444Z,39.5941
2023-04-09T07:33:39.957Z,39.6268
2023-04-09T07:34:41.597Z,39.9560
2023-04-09T07:35:43.216Z,39.7527
2023-04-09T07:36:44.954Z,39.6562
2023-04-09T07:37:47.003Z,39.4975
2023-04-09T07:38:48.551Z,39.2938
2023-04-09T07:39:49.888Z,39.4570
2023-04-09T07:40:51.902Z,39.5582
2023-04-09T07:41:53.148Z,39.3971
2023-04-09T07:42:54.834Z,39.3207
2023-04-09T07:43:56.565Z,39.0884
2023-04-09T07:44:58.250Z,39.0558
2023-04-09T07:45:59.853Z,39.2117
2023-04-09T07:47:01.557Z,39.1072
2023-04-09T07:48:03.510Z,39.1175
2023-04-09T07:49:04.943Z,39.2309
2023-04-09T07:50:06.351Z,38.7927
2023-04-09T07:51:08.934Z,38.8586
2023-04-09T07:52:09.666Z,38.9927
2023-04-09T07:53:12.004Z,38.8316
2023-04-09T07:54:13.094Z,38.8260
2023-04-09T07:55:15.154Z,38.7191
2023-04-09T07:56:16.223Z,38.3588
2023-04-09T07:57:17.869Z,38.4951
2023-04-09T07:58:19.613Z,38.5046
2023-04-09T07:59:21.217Z,38.3261
2023-04-09T08:00:22.856Z,38.5781
2023-04-09T08:01:24.508Z,38.2507
2023-04-09T08:02:26.364Z,38.0816
2023-04-09T08:03:28.115Z,38.3436
2023-04-09T08:04:29.487Z,38.2377
2023-04-09T08:05:31.142Z,38.1552
2023-04-09T08:06:32.737Z,38.4757
2023-04-09T08:07:34.482Z,38.0592
2023-04-09T08:08:36.103Z,38.0314
2023-04-09T08:09:37.761Z,38.1834
2023-04-09T08:10:39.368Z,38.1053
2023-04-09T08:11:40.984Z,38.0978
2023-04-09T08:12:42.706Z,38.2048
2023-04-09T08:13:44.622Z,37.8291
2023-04-09T08:14:45.940Z,37.9863
2023-04-09T08:15:47.635Z,38.1120
2023-04-09T08:16:49.372Z,37.9642
2023-04-09T08:17:51.497Z,38.1221
2023-04-09T08:18:52.932Z,37.9704
2023-04-09T08:19:54.586Z,37.7122
2023-04-09T08:20:55.839Z,37.8754
2023-04-09T08:21:57.567Z,37.8995
2023-04-09T08:22:59.207Z,37.6887
2023-04-09T08:24:00.833Z,37.8845
2023-04-09T08:25:03.537Z,37.6356
2023-04-09T08:26:04.073Z,37.4680
2023-04-09T08:27:05.748Z,37.7170
2023-04-09T08:28:07.410Z,37.6916
2023-04-09T08:29:09.109Z,37.5585
2023-04-09T08:30:10.730Z,37.7051
2023-04-09T08:31:12.448Z,37.4026
2023-04-09T08:32:14.045Z,37.4697
2023-04-09T08:33:15.641Z,37.5508
2023-04-09T08:34:17.584Z,37.5018
2023-04-09T08:35:19.058Z,37.2630
2023-04-09T08:36:21.593Z,37.4504
2023-04-09T08:37:22.419Z,37.0596
2023-04-09T08:38:24.094Z,37.1143
2023-04-09T08:39:25.792Z,37.2709
2023-04-09T08:40:27.581Z,37.1883
2023-04-09T08:41:28.944Z,37.2008
2023-04-09T08:42:30.545Z,37.0345
2023-04-09T08:43:52.531Z,36.8494
2023-04-09T08:44:33.963Z,36.9322
2023-04-09T08:45:35.604Z,37.1366
2023-04-09T08:46:37.147Z,36.9671
2023-04-09T08:47:38.934Z,36.8825
2023-04-09T08:48:40.586Z,36.7996
2023-04-09T08:49:43.034Z,36.7053
2023-04-09T08:50:43.767Z,36.8565
2023-04-09T08:51:45.450Z,37.0243
2023-04-09T08:52:47.132Z,36.9138
2023-04-09T08:53:48.723Z,37.0958
2023-04-09T08:54:50.447Z,36.8655
2023-04-09T08:55:53.152Z,36.7041
2023-04-09T08:56:53.812Z,36.6925
2023-04-09T08:57:56.094Z,36.5179
2023-04-09T08:58:57.139Z,36.2164
2023-04-09T08:59:59.121Z,36.3412
2023-04-09T09:01:00.488Z,36.2115
2023-04-09T09:02:02.087Z,36.1036
2023-04-09T09:03:03.824Z,36.1530
2023-04-09T09:04:05.380Z,36.0558
2023-04-09T09:05:07.163Z,35.8059
2023-04-09T09:06:08.646Z,35.8870
2023-04-09T09:07:10.376Z,35.7397
2023-04-09T09:08:12.607Z,35.8147
2023-04-09T09:09:13.576Z,36.0869
2023-04-09T09:10:15.714Z,35.9675
2023-04-09T09:11:16.933Z,35.8951
2023-04-09T09:12:18.654Z,35.8626
2023-04-09T09:13:20.266Z,35.7476
2023-04-09T09:14:21.947Z,35.8113
2023-04-09T09:15:23.714Z,35.9925
2023-04-09T09:16:25.187Z,35.8463
2023-04-09T09:17:26.947Z,35.9692
2023-04-09T09:18:28.521Z,35.8476
2023-04-09T09:19:30.656Z,35.7681
2023-04-09T09:20:32.326Z,35.8326
2023-04-09T09:21:33.591Z,35.7862
2023-04-09T09:22:35.148Z,35.7347
2023-04-09T09:23:36.880Z,35.8692
2023-04-09T09:24:38.494Z,35.7067
2023-04-09T09:25:40.128Z,35.6982
2023-04-09T09:26:41.850Z,35.8371
2023-04-09T09:27:43.402Z,35.8558
2023-04-09T09:28:45.050Z,35.6876
2023-04-09T09:29:46.714Z,35.8551
2023-04-09T09:30:49.526Z,35.6348
2023-04-09T09:31:50.079Z,35.6327
2023-04-09T09:32:51.765Z,35.8388
2023-04-09T09:33:53.308Z,35.8131
2023-04-09T09:34:54.874Z,35.8205
2023-04-09T09:35:56.730Z,35.8201
2023-04-09T09:36:58.268Z,35.5253
2023-04-09T09:37:59.954Z,35.6330
2023-04-09T09:39:01.586Z,35.7533
2023-04-09T09:40:03.180Z,35.6681
2023-04-09T09:41:04.878Z,35.6381
2023-04-09T09:42:06.482Z,35.6081
2023-04-09T09:43:08.205Z,35.4510
2023-04-09T09:44:09.701Z,35.6377
2023-04-09T09:45:11.454Z,35.7564
2023-04-09T09:46:13.231Z,35.6549
2023-04-09T09:47:14.836Z,35.6958
2023-04-09T09:48:16.501Z,35.4827
2023-04-09T09:49:18.112Z,35.4477
2023-04-09T09:50:19.693Z,35.5892
2023-04-09T09:51:21.394Z,35.7265
2023-04-09T09:52:23.084Z,35.6037
2023-04-09T09:53:24.665Z,35.7118
2023-04-09T09:54:26.365Z,35.5635
2023-04-09T09:55:28.144Z,35.4018
2023-04-09T09:56:29.792Z,35.6424
2023-04-09T09:57:31.421Z,35.6560
2023-04-09T09:58:33.094Z,35.6567
2023-04-09T09:59:34.674Z,35.6223
2023-04-09T10:00:36.359Z,35.4086
2023-04-09T10:01:38.148Z,35.4769
2023-04-09T10:02:39.699Z,35.6532
2023-04-09T10:03:41.372Z,35.6392
2023-04-09T10:04:43.068Z,35.5556
2023-04-09T10:05:44.583Z,35.5679
2023-04-09T10:06:46.354Z,35.4411
2023-04-09T10:07:47.885Z,35.4734
2023-04-09T10:08:49.710Z,35.7339
2023-04-09T10:09:51.214Z,35.6376
2023-04-09T10:10:52.991Z,35.5895
2023-04-09T10:11:54.670Z,35.5061
2023-04-09T10:12:56.476Z,35.2836
2023-04-09T10:13:57.795Z,35.4537
2023-04-09T10:14:59.510Z,35.6283
2023-04-09T10:16:01.144Z,35.5831
2023-04-09T10:17:02.856Z,35.4322
2023-04-09T10:18:04.475Z,35.4153
2023-04-09T10:19:06.075Z,35.2647
2023-04-09T10:20:07.722Z,35.3347
2023-04-09T10:21:09.369Z,35.4944
2023-04-09T10:22:11.052Z,35.4465
2023-04-09T10:23:13.215Z,35.3523
2023-04-09T10:24:14.278Z,35.2676
2023-04-09T10:25:15.984Z,35.2021
2023-04-09T10:26:17.716Z,35.1842
2023-04-09T10:27:19.390Z,35.5159
2023-04-09T10:28:20.963Z,35.3635
2023-04-09T10:29:22.650Z,35.3034
2023-04-09T10:30:24.220Z,35.4600
2023-04-09T10:31:25.908Z,35.1425
2023-04-09T10:32:28.604Z,35.2277
2023-04-09T10:33:29.245Z,35.2755
2023-04-09T10:34:30.939Z,35.2237
2023-04-09T10:35:32.475Z,35.0519
2023-04-09T10:36:34.165Z,35.0410
2023-04-09T10:37:35.873Z,35.0593
2023-04-09T10:38:37.471Z,35.0330
2023-04-09T10:39:39.161Z,35.1974
2023-04-09T10:40:40.735Z,35.1719
2023-04-09T10:41:42.442Z,35.0007
2023-04-09T10:42:44.143Z,35.1666
2023-04-09T10:43:45.751Z,34.9315
2023-04-09T10:44:47.415Z,34.9652
2023-04-09T10:45:49.061Z,35.1483
2023-04-09T10:46:50.803Z,35.1182
2023-04-09T10:47:52.842Z,35.0226
2023-04-09T10:48:54.131Z,34.9843
2023-04-09T10:49:55.708Z,34.7115
2023-04-09T10:50:57.322Z,34.7431
2023-04-09T10:51:59.000Z,34.9345
2023-04-09T10:53:00.735Z,34.9721
2023-04-09T10:54:02.298Z,34.8424
2023-04-09T10:55:03.913Z,34.8194
2023-04-09T10:56:05.562Z,34.6960
2023-04-09T10:57:07.307Z,34.6626
2023-04-09T10:58:11.296Z,34.8815
2023-04-09T10:59:10.595Z,34.8500
2023-04-09T11:00:12.541Z,34.7801
2023-04-09T11:01:13.851Z,34.6982
2023-04-09T11:02:15.564Z,34.6240
2023-04-09T11:03:17.370Z,34.6809
2023-04-09T11:04:18.648Z,34.9344
2023-04-09T11:05:20.320Z,34.8420
2023-04-09T11:06:21.984Z,34.7087
2023-04-09T11:07:23.692Z,34.7302
2023-04-09T11:08:25.313Z,34.5688
2023-04-09T11:09:26.910Z,34.6698
2023-04-09T11:10:28.578Z,34.7966
2023-04-09T11:11:30.241Z,34.7356
2023-04-09T11:12:31.878Z,34.5410
2023-04-09T11:13:33.541Z,34.5965
2023-04-09T11:14:35.180Z,34.4642
2023-04-09T11:15:36.826Z,34.5058
2023-04-09T11:16:38.664Z,34.5963
2023-04-09T11:17:40.277Z,34.5075
2023-04-09T11:18:42.172Z,34.5409
2023-04-09T11:19:43.504Z,34.5352
2023-04-09T11:20:45.078Z,34.4840
2023-04-09T11:21:46.817Z,34.5502
2023-04-09T11:22:48.419Z,34.6669
2023-04-09T11:23:50.155Z,34.5113
2023-04-09T11:24:51.770Z,34.4932
2023-04-09T11:25:53.368Z,34.4113
2023-04-09T11:26:55.092Z,34.3364
2023-04-09T11:27:56.647Z,34.4751
2023-04-09T11:28:59.145Z,34.5749
2023-04-09T11:30:00.134Z,34.3795
2023-04-09T11:31:01.794Z,34.4016
2023-04-09T11:32:03.262Z,34.1871
2023-04-09T11:33:05.129Z,34.1346
2023-04-09T11:34:06.667Z,34.1823
2023-04-09T11:35:08.243Z,34.3466
2023-04-09T11:36:09.854Z,34.2023
2023-04-09T11:37:11.546Z,34.3541
2023-04-09T11:38:14.048Z,34.1455
2023-04-09T11:39:15.145Z,34.0652
2023-04-09T11:40:16.540Z,34.2849
2023-04-09T11:41:18.188Z,34.1971
2023-04-09T11:42:19.755Z,34.1679
2023-04-09T11:43:21.459Z,34.2032
2023-04-09T11:44:23.701Z,33.8501
2023-04-09T11:45:24.722Z,33.7501
2023-04-09T11:46:27.456Z,34.0637
2023-04-09T11:47:28.045Z,34.0171
2023-04-09T11:48:29.784Z,33.8632
2023-04-09T11:49:32.245Z,33.7702
2023-04-09T11:50:33.027Z,33.6211
2023-04-09T11:51:34.749Z,33.6202
2023-04-09T11:52:36.452Z,33.8719
2023-04-09T11:53:38.073Z,33.7339
2023-04-09T11:54:39.740Z,33.6263
2023-04-09T11:55:41.378Z,33.5401
2023-04-09T11:56:43.075Z,33.3582
2023-04-09T11:57:44.681Z,33.5020
2023-04-09T11:58:46.327Z,33.5293
2023-04-09T11:59:48.129Z,33.6148
2023-04-09T12:00:49.676Z,33.4740
2023-04-09T12:01:51.515Z,33.2598
2023-04-09T12:02:53.301Z,33.0644
2023-04-09T12:03:54.675Z,33.0754
2023-04-09T12:04:56.620Z,33.1042
2023-04-09T12:05:57.764Z,33.2085
2023-04-09T12:06:59.482Z,33.0924
2023-04-09T12:08:01.067Z,33.2874
2023-04-09T12:09:02.831Z,32.9076
2023-04-09T12:10:04.560Z,32.8206
2023-04-09T12:11:06.076Z,32.8261
2023-04-09T12:12:08.680Z,33.1549
2023-04-09T12:13:09.370Z,33.0504
2023-04-09T12:14:11.033Z,32.9620
2023-04-09T12:15:12.806Z,32.6200
2023-04-09T12:16:14.577Z,32.6691
2023-04-09T12:17:15.963Z,32.6087
2023-04-09T12:18:17.693Z,32.8046
2023-04-09T12:19:19.333Z,32.7472
2023-04-09T12:20:21.209Z,32.7549
2023-04-09T12:21:22.572Z,32.5658
2023-04-09T12:22:24.226Z,32.5405
2023-04-09T12:23:25.987Z,32.5322
2023-04-09T12:24:27.571Z,32.7952
2023-04-09T12:25:29.271Z,32.7220